sensor_id;sensor_type;location;lat;lon;timestamp;P1;durP1;ratioP1;P2;durP2;ratioP2
72590;SDS011;60625;51.212;5.952;2022-12-13T00:04:35;28.70;;;11.80;;
72590;SDS011;60625;51.212;5.952;2022-12-13T00:09:35;31.50;;;11.50;;
72590;SDS011;60625;51.212;5.952;2022-12-13T00:14:36;29.20;;;10.60;;
72590;SDS011;60625;51.212;5.952;2022-12-13T00:19:37;27.10;;;11.00;;
72590;SDS011;60625;51.212;5.952;2022-12-13T00:24:37;41.70;;;13.40;;
72590;SDS011;60625;51.212;5.952;2022-12-13T00:29:38;29.10;;;11.30;;
72590;SDS011;60625;51.212;5.952;2022-12-13T00:34:39;28.10;;;10.30;;
72590;SDS011;60625;51.212;5.952;2022-12-13T00:39:39;29.70;;;10.60;;
72590;SDS011;60625;51.212;5.952;2022-12-13T00:44:40;27.20;;;10.80;;
72590;SDS011;60625;51.212;5.952;2022-12-13T00:49:40;27.10;;;10.50;;
72590;SDS011;60625;51.212;5.952;2022-12-13T00:54:41;25.50;;;10.30;;
72590;SDS011;60625;51.212;5.952;2022-12-13T00:59:41;22.60;;;10.00;;
72590;SDS011;60625;51.212;5.952;2022-12-13T01:04:41;26.60;;;10.50;;
72590;SDS011;60625;51.212;5.952;2022-12-13T01:09:42;34.10;;;12.60;;
72590;SDS011;60625;51.212;5.952;2022-12-13T01:14:42;32.60;;;12.00;;
72590;SDS011;60625;51.212;5.952;2022-12-13T01:19:43;26.10;;;10.30;;
72590;SDS011;60625;51.212;5.952;2022-12-13T01:24:43;26.50;;;10.60;;
72590;SDS011;60625;51.212;5.952;2022-12-13T01:29:44;24.90;;;9.30;;
72590;SDS011;60625;51.212;5.952;2022-12-13T01:34:44;26.80;;;10.40;;
72590;SDS011;60625;51.212;5.952;2022-12-13T01:39:45;39.80;;;12.10;;
72590;SDS011;60625;51.212;5.952;2022-12-13T01:49:57;20.60;;;8.50;;
72590;SDS011;60625;51.212;5.952;2022-12-13T01:55:03;27.30;;;8.70;;
72590;SDS011;60625;51.212;5.952;2022-12-13T02:00:07;26.30;;;9.10;;
72590;SDS011;60625;51.212;5.952;2022-12-13T02:05:14;20.60;;;7.70;;
72590;SDS011;60625;51.212;5.952;2022-12-13T02:10:18;22.80;;;9.30;;
72590;SDS011;60625;51.212;5.952;2022-12-13T02:15:20;22.40;;;8.60;;
72590;SDS011;60625;51.212;5.952;2022-12-13T02:20:29;21.90;;;9.50;;
72590;SDS011;60625;51.212;5.952;2022-12-13T02:31:31;22.20;;;8.60;;
72590;SDS011;60625;51.212;5.952;2022-12-13T02:41:51;24.60;;;8.70;;
72590;SDS011;60625;51.212;5.952;2022-12-13T02:47:00;21.90;;;8.60;;
72590;SDS011;60625;51.212;5.952;2022-12-13T02:52:09;17.70;;;8.70;;
72590;SDS011;60625;51.212;5.952;2022-12-13T02:57:28;20.20;;;8.70;;
72590;SDS011;60625;51.212;5.952;2022-12-13T03:03:10;31.40;;;12.20;;
72590;SDS011;60625;51.212;5.952;2022-12-13T03:08:30;28.30;;;10.30;;
72590;SDS011;60625;51.212;5.952;2022-12-13T03:18:57;26.10;;;10.50;;
72590;SDS011;60625;51.212;5.952;2022-12-13T03:23:59;24.90;;;9.20;;
72590;SDS011;60625;51.212;5.952;2022-12-13T03:29:01;30.10;;;9.80;;
72590;SDS011;60625;51.212;5.952;2022-12-13T03:34:02;24.10;;;8.80;;
72590;SDS011;60625;51.212;5.952;2022-12-13T03:39:02;45.20;;;14.90;;
72590;SDS011;60625;51.212;5.952;2022-12-13T03:44:04;27.20;;;10.80;;
72590;SDS011;60625;51.212;5.952;2022-12-13T03:49:05;21.50;;;9.30;;
72590;SDS011;60625;51.212;5.952;2022-12-13T03:54:05;26.10;;;9.60;;
72590;SDS011;60625;51.212;5.952;2022-12-13T03:59:06;29.40;;;10.70;;
72590;SDS011;60625;51.212;5.952;2022-12-13T04:04:06;23.00;;;10.70;;
72590;SDS011;60625;51.212;5.952;2022-12-13T04:09:07;35.30;;;11.80;;
72590;SDS011;60625;51.212;5.952;2022-12-13T04:14:07;28.90;;;9.90;;
72590;SDS011;60625;51.212;5.952;2022-12-13T04:19:08;26.80;;;10.80;;
72590;SDS011;60625;51.212;5.952;2022-12-13T04:24:08;28.80;;;10.10;;
72590;SDS011;60625;51.212;5.952;2022-12-13T04:29:09;30.40;;;11.20;;
72590;SDS011;60625;51.212;5.952;2022-12-13T04:34:09;26.80;;;9.90;;
72590;SDS011;60625;51.212;5.952;2022-12-13T04:39:10;32.90;;;12.70;;
72590;SDS011;60625;51.212;5.952;2022-12-13T04:44:10;32.00;;;11.10;;
72590;SDS011;60625;51.212;5.952;2022-12-13T04:49:11;26.80;;;11.50;;
72590;SDS011;60625;51.212;5.952;2022-12-13T04:54:11;31.50;;;11.00;;
72590;SDS011;60625;51.212;5.952;2022-12-13T04:59:12;30.60;;;10.70;;
72590;SDS011;60625;51.212;5.952;2022-12-13T05:04:12;40.60;;;14.90;;
72590;SDS011;60625;51.212;5.952;2022-12-13T05:09:13;26.50;;;10.90;;
72590;SDS011;60625;51.212;5.952;2022-12-13T05:14:14;35.90;;;13.70;;
72590;SDS011;60625;51.212;5.952;2022-12-13T05:19:14;34.50;;;13.30;;
72590;SDS011;60625;51.212;5.952;2022-12-13T05:24:15;39.50;;;13.00;;
72590;SDS011;60625;51.212;5.952;2022-12-13T05:29:17;36.80;;;13.20;;
72590;SDS011;60625;51.212;5.952;2022-12-13T05:34:17;34.50;;;14.40;;
72590;SDS011;60625;51.212;5.952;2022-12-13T05:39:18;42.10;;;14.50;;
72590;SDS011;60625;51.212;5.952;2022-12-13T05:44:18;38.60;;;16.00;;
72590;SDS011;60625;51.212;5.952;2022-12-13T05:49:18;37.20;;;11.90;;
72590;SDS011;60625;51.212;5.952;2022-12-13T05:54:19;42.40;;;17.80;;
72590;SDS011;60625;51.212;5.952;2022-12-13T05:59:19;44.50;;;16.00;;
72590;SDS011;60625;51.212;5.952;2022-12-13T06:04:20;40.50;;;15.10;;
72590;SDS011;60625;51.212;5.952;2022-12-13T06:09:20;41.90;;;15.60;;
72590;SDS011;60625;51.212;5.952;2022-12-13T06:14:21;40.90;;;16.10;;
72590;SDS011;60625;51.212;5.952;2022-12-13T06:19:23;45.00;;;17.20;;
72590;SDS011;60625;51.212;5.952;2022-12-13T06:24:23;39.80;;;13.90;;
72590;SDS011;60625;51.212;5.952;2022-12-13T06:29:24;44.50;;;16.80;;
72590;SDS011;60625;51.212;5.952;2022-12-13T06:34:26;43.80;;;16.80;;
72590;SDS011;60625;51.212;5.952;2022-12-13T06:39:27;36.90;;;16.40;;
72590;SDS011;60625;51.212;5.952;2022-12-13T06:44:29;45.90;;;17.00;;
72590;SDS011;60625;51.212;5.952;2022-12-13T06:49:30;37.80;;;15.10;;
72590;SDS011;60625;51.212;5.952;2022-12-13T06:54:30;59.10;;;20.30;;
72590;SDS011;60625;51.212;5.952;2022-12-13T06:59:31;45.60;;;15.20;;
72590;SDS011;60625;51.212;5.952;2022-12-13T07:04:31;46.60;;;16.90;;
72590;SDS011;60625;51.212;5.952;2022-12-13T07:09:32;37.30;;;13.70;;
72590;SDS011;60625;51.212;5.952;2022-12-13T07:14:32;42.50;;;18.60;;
72590;SDS011;60625;51.212;5.952;2022-12-13T07:19:34;43.10;;;16.00;;
72590;SDS011;60625;51.212;5.952;2022-12-13T07:24:34;43.60;;;16.60;;
72590;SDS011;60625;51.212;5.952;2022-12-13T07:29:36;41.70;;;16.60;;
72590;SDS011;60625;51.212;5.952;2022-12-13T07:34:36;46.90;;;20.20;;
72590;SDS011;60625;51.212;5.952;2022-12-13T07:39:37;60.20;;;21.90;;
72590;SDS011;60625;51.212;5.952;2022-12-13T07:44:37;55.70;;;24.80;;
72590;SDS011;60625;51.212;5.952;2022-12-13T07:49:38;48.00;;;18.80;;
72590;SDS011;60625;51.212;5.952;2022-12-13T07:54:39;48.40;;;20.80;;
72590;SDS011;60625;51.212;5.952;2022-12-13T07:59:40;57.80;;;21.10;;
72590;SDS011;60625;51.212;5.952;2022-12-13T08:04:41;45.00;;;15.60;;
72590;SDS011;60625;51.212;5.952;2022-12-13T08:09:42;49.80;;;19.00;;
72590;SDS011;60625;51.212;5.952;2022-12-13T08:14:42;60.20;;;20.70;;
72590;SDS011;60625;51.212;5.952;2022-12-13T08:19:43;46.40;;;17.20;;
72590;SDS011;60625;51.212;5.952;2022-12-13T08:24:43;45.80;;;17.00;;
72590;SDS011;60625;51.212;5.952;2022-12-13T08:29:44;64.20;;;20.40;;
72590;SDS011;60625;51.212;5.952;2022-12-13T08:34:45;53.90;;;19.10;;
72590;SDS011;60625;51.212;5.952;2022-12-13T08:39:45;50.10;;;17.00;;
72590;SDS011;60625;51.212;5.952;2022-12-13T08:44:47;52.30;;;19.30;;
72590;SDS011;60625;51.212;5.952;2022-12-13T08:49:49;54.70;;;20.00;;
72590;SDS011;60625;51.212;5.952;2022-12-13T08:54:49;44.30;;;16.50;;
72590;SDS011;60625;51.212;5.952;2022-12-13T08:59:50;47.10;;;19.60;;
72590;SDS011;60625;51.212;5.952;2022-12-13T09:04:53;49.50;;;18.00;;
72590;SDS011;60625;51.212;5.952;2022-12-13T09:09:53;56.40;;;21.00;;
72590;SDS011;60625;51.212;5.952;2022-12-13T09:14:54;50.70;;;18.80;;
72590;SDS011;60625;51.212;5.952;2022-12-13T09:19:54;52.70;;;20.00;;
72590;SDS011;60625;51.212;5.952;2022-12-13T09:24:54;56.40;;;21.00;;
72590;SDS011;60625;51.212;5.952;2022-12-13T09:29:56;45.80;;;17.00;;
72590;SDS011;60625;51.212;5.952;2022-12-13T09:34:56;40.70;;;17.00;;
72590;SDS011;60625;51.212;5.952;2022-12-13T09:39:56;50.90;;;19.30;;
72590;SDS011;60625;51.212;5.952;2022-12-13T09:44:59;49.80;;;18.30;;
72590;SDS011;60625;51.212;5.952;2022-12-13T09:50:05;34.30;;;14.80;;
72590;SDS011;60625;51.212;5.952;2022-12-13T10:00:33;38.20;;;16.40;;
72590;SDS011;60625;51.212;5.952;2022-12-13T10:05:36;41.10;;;14.40;;
72590;SDS011;60625;51.212;5.952;2022-12-13T10:10:36;35.20;;;15.00;;
72590;SDS011;60625;51.212;5.952;2022-12-13T10:15:40;32.70;;;13.20;;
72590;SDS011;60625;51.212;5.952;2022-12-13T10:20:42;33.20;;;14.80;;
72590;SDS011;60625;51.212;5.952;2022-12-13T10:25:46;28.70;;;12.40;;
72590;SDS011;60625;51.212;5.952;2022-12-13T10:30:55;33.40;;;13.90;;
72590;SDS011;60625;51.212;5.952;2022-12-13T10:41:29;28.20;;;12.50;;
72590;SDS011;60625;51.212;5.952;2022-12-13T10:46:32;34.30;;;14.10;;
72590;SDS011;60625;51.212;5.952;2022-12-13T10:51:37;30.60;;;11.30;;
72590;SDS011;60625;51.212;5.952;2022-12-13T10:56:46;38.00;;;15.60;;
72590;SDS011;60625;51.212;5.952;2022-12-13T11:01:48;35.30;;;15.60;;
72590;SDS011;60625;51.212;5.952;2022-12-13T11:06:49;36.90;;;17.80;;
72590;SDS011;60625;51.212;5.952;2022-12-13T11:11:50;33.70;;;16.50;;
72590;SDS011;60625;51.212;5.952;2022-12-13T11:16:57;28.80;;;14.00;;
72590;SDS011;60625;51.212;5.952;2022-12-13T11:22:00;38.40;;;16.60;;
72590;SDS011;60625;51.212;5.952;2022-12-13T11:27:09;33.40;;;15.70;;
72590;SDS011;60625;51.212;5.952;2022-12-13T11:37:53;35.80;;;15.80;;
72590;SDS011;60625;51.212;5.952;2022-12-13T11:43:13;28.20;;;13.00;;
72590;SDS011;60625;51.212;5.952;2022-12-13T11:48:35;34.00;;;14.40;;
72590;SDS011;60625;51.212;5.952;2022-12-13T11:54:09;31.90;;;14.90;;
72590;SDS011;60625;51.212;5.952;2022-12-13T11:59:32;26.50;;;13.00;;
72590;SDS011;60625;51.212;5.952;2022-12-13T12:04:48;36.70;;;15.50;;
72590;SDS011;60625;51.212;5.952;2022-12-13T12:10:03;29.40;;;13.30;;
72590;SDS011;60625;51.212;5.952;2022-12-13T12:15:09;30.70;;;12.60;;
72590;SDS011;60625;51.212;5.952;2022-12-13T12:20:21;26.70;;;13.20;;
72590;SDS011;60625;51.212;5.952;2022-12-13T12:25:46;24.20;;;11.40;;
72590;SDS011;60625;51.212;5.952;2022-12-13T12:31:14;26.40;;;12.70;;
72590;SDS011;60625;51.212;5.952;2022-12-13T12:36:37;25.20;;;10.80;;
72590;SDS011;60625;51.212;5.952;2022-12-13T12:42:14;26.30;;;11.00;;
72590;SDS011;60625;51.212;5.952;2022-12-13T12:52:58;28.00;;;11.40;;
72590;SDS011;60625;51.212;5.952;2022-12-13T13:03:20;26.90;;;12.00;;
72590;SDS011;60625;51.212;5.952;2022-12-13T13:14:05;28.20;;;11.60;;
72590;SDS011;60625;51.212;5.952;2022-12-13T13:24:32;25.70;;;11.60;;
72590;SDS011;60625;51.212;5.952;2022-12-13T13:29:36;25.50;;;11.00;;
72590;SDS011;60625;51.212;5.952;2022-12-13T13:34:43;25.20;;;10.40;;
72590;SDS011;60625;51.212;5.952;2022-12-13T13:39:53;29.60;;;11.90;;
72590;SDS011;60625;51.212;5.952;2022-12-13T13:45:23;24.20;;;10.80;;
72590;SDS011;60625;51.212;5.952;2022-12-13T13:56:22;29.10;;;11.50;;
72590;SDS011;60625;51.212;5.952;2022-12-13T14:14:00;29.00;;;11.70;;
72590;SDS011;60625;51.212;5.952;2022-12-13T14:19:19;26.20;;;11.60;;
72590;SDS011;60625;51.212;5.952;2022-12-13T14:30:05;34.70;;;13.60;;
72590;SDS011;60625;51.212;5.952;2022-12-13T14:35:22;25.70;;;11.70;;
72590;SDS011;60625;51.212;5.952;2022-12-13T14:40:35;25.30;;;11.00;;
72590;SDS011;60625;51.212;5.952;2022-12-13T14:45:37;23.50;;;11.30;;
72590;SDS011;60625;51.212;5.952;2022-12-13T14:50:40;20.80;;;10.00;;
72590;SDS011;60625;51.212;5.952;2022-12-13T14:56:01;28.80;;;12.00;;
72590;SDS011;60625;51.212;5.952;2022-12-13T15:01:05;27.90;;;12.70;;
72590;SDS011;60625;51.212;5.952;2022-12-13T15:06:06;23.00;;;9.60;;
72590;SDS011;60625;51.212;5.952;2022-12-13T15:11:07;23.40;;;10.00;;
72590;SDS011;60625;51.212;5.952;2022-12-13T15:21:27;21.40;;;8.90;;
72590;SDS011;60625;51.212;5.952;2022-12-13T15:26:32;22.30;;;10.10;;
72590;SDS011;60625;51.212;5.952;2022-12-13T15:31:33;26.50;;;10.40;;
72590;SDS011;60625;51.212;5.952;2022-12-13T15:36:36;28.40;;;11.10;;
72590;SDS011;60625;51.212;5.952;2022-12-13T15:41:45;21.90;;;9.60;;
72590;SDS011;60625;51.212;5.952;2022-12-13T15:46:49;22.10;;;10.00;;
72590;SDS011;60625;51.212;5.952;2022-12-13T15:52:00;21.90;;;9.90;;
72590;SDS011;60625;51.212;5.952;2022-12-13T15:57:14;23.80;;;9.80;;
72590;SDS011;60625;51.212;5.952;2022-12-13T16:02:21;22.10;;;9.80;;
72590;SDS011;60625;51.212;5.952;2022-12-13T16:07:32;21.90;;;10.40;;
72590;SDS011;60625;51.212;5.952;2022-12-13T16:12:46;22.20;;;9.70;;
72590;SDS011;60625;51.212;5.952;2022-12-13T16:17:52;19.90;;;8.80;;
72590;SDS011;60625;51.212;5.952;2022-12-13T16:22:54;23.30;;;10.50;;
72590;SDS011;60625;51.212;5.952;2022-12-13T16:27:55;22.50;;;8.80;;
72590;SDS011;60625;51.212;5.952;2022-12-13T16:32:56;21.90;;;9.10;;
72590;SDS011;60625;51.212;5.952;2022-12-13T16:37:57;22.30;;;7.90;;
72590;SDS011;60625;51.212;5.952;2022-12-13T16:42:59;22.20;;;9.40;;
72590;SDS011;60625;51.212;5.952;2022-12-13T16:48:02;20.30;;;9.00;;
72590;SDS011;60625;51.212;5.952;2022-12-13T16:53:04;21.50;;;9.10;;
72590;SDS011;60625;51.212;5.952;2022-12-13T16:58:06;20.50;;;8.20;;
72590;SDS011;60625;51.212;5.952;2022-12-13T17:03:12;19.70;;;8.90;;
72590;SDS011;60625;51.212;5.952;2022-12-13T17:08:14;24.70;;;8.40;;
72590;SDS011;60625;51.212;5.952;2022-12-13T17:13:15;20.50;;;9.10;;
72590;SDS011;60625;51.212;5.952;2022-12-13T17:18:15;20.90;;;8.30;;
72590;SDS011;60625;51.212;5.952;2022-12-13T17:23:17;20.10;;;7.70;;
72590;SDS011;60625;51.212;5.952;2022-12-13T17:28:18;20.80;;;7.90;;
72590;SDS011;60625;51.212;5.952;2022-12-13T17:33:19;20.60;;;8.90;;
72590;SDS011;60625;51.212;5.952;2022-12-13T17:38:19;16.90;;;7.40;;
72590;SDS011;60625;51.212;5.952;2022-12-13T17:43:20;18.60;;;7.80;;
72590;SDS011;60625;51.212;5.952;2022-12-13T17:48:22;20.80;;;7.50;;
72590;SDS011;60625;51.212;5.952;2022-12-13T17:53:23;17.70;;;7.30;;
72590;SDS011;60625;51.212;5.952;2022-12-13T17:58:27;19.70;;;7.70;;
72590;SDS011;60625;51.212;5.952;2022-12-13T18:03:29;16.30;;;7.90;;
72590;SDS011;60625;51.212;5.952;2022-12-13T18:08:33;15.80;;;7.80;;
72590;SDS011;60625;51.212;5.952;2022-12-13T18:13:35;16.60;;;7.40;;
72590;SDS011;60625;51.212;5.952;2022-12-13T18:18:36;17.80;;;7.90;;
72590;SDS011;60625;51.212;5.952;2022-12-13T18:23:37;18.20;;;6.70;;
72590;SDS011;60625;51.212;5.952;2022-12-13T18:28:38;20.00;;;8.00;;
72590;SDS011;60625;51.212;5.952;2022-12-13T18:33:39;16.70;;;6.70;;
72590;SDS011;60625;51.212;5.952;2022-12-13T18:38:41;21.20;;;8.40;;
72590;SDS011;60625;51.212;5.952;2022-12-13T18:43:42;19.30;;;7.60;;
72590;SDS011;60625;51.212;5.952;2022-12-13T18:48:44;20.50;;;7.20;;
72590;SDS011;60625;51.212;5.952;2022-12-13T18:53:44;21.00;;;8.40;;
72590;SDS011;60625;51.212;5.952;2022-12-13T18:58:48;19.30;;;7.20;;
72590;SDS011;60625;51.212;5.952;2022-12-13T19:03:49;18.00;;;7.90;;
72590;SDS011;60625;51.212;5.952;2022-12-13T19:08:52;19.30;;;8.80;;
72590;SDS011;60625;51.212;5.952;2022-12-13T19:13:55;20.00;;;8.10;;
72590;SDS011;60625;51.212;5.952;2022-12-13T19:18:56;20.60;;;7.90;;
72590;SDS011;60625;51.212;5.952;2022-12-13T19:23:57;20.90;;;8.20;;
72590;SDS011;60625;51.212;5.952;2022-12-13T19:28:59;22.90;;;9.00;;
72590;SDS011;60625;51.212;5.952;2022-12-13T19:34:00;28.00;;;8.70;;
72590;SDS011;60625;51.212;5.952;2022-12-13T19:39:01;20.30;;;8.20;;
72590;SDS011;60625;51.212;5.952;2022-12-13T19:44:02;22.40;;;8.50;;
72590;SDS011;60625;51.212;5.952;2022-12-13T19:49:04;20.10;;;9.20;;
72590;SDS011;60625;51.212;5.952;2022-12-13T19:54:04;20.70;;;8.70;;
72590;SDS011;60625;51.212;5.952;2022-12-13T19:59:05;18.80;;;8.70;;
72590;SDS011;60625;51.212;5.952;2022-12-13T20:04:05;21.30;;;8.10;;
72590;SDS011;60625;51.212;5.952;2022-12-13T20:09:05;19.00;;;8.40;;
72590;SDS011;60625;51.212;5.952;2022-12-13T20:14:06;21.60;;;7.90;;
72590;SDS011;60625;51.212;5.952;2022-12-13T20:19:08;19.70;;;8.90;;
72590;SDS011;60625;51.212;5.952;2022-12-13T20:24:10;18.50;;;8.80;;
72590;SDS011;60625;51.212;5.952;2022-12-13T20:29:11;19.30;;;8.40;;
72590;SDS011;60625;51.212;5.952;2022-12-13T20:34:12;18.80;;;8.20;;
72590;SDS011;60625;51.212;5.952;2022-12-13T20:39:13;19.00;;;7.50;;
72590;SDS011;60625;51.212;5.952;2022-12-13T20:44:14;16.80;;;7.40;;
72590;SDS011;60625;51.212;5.952;2022-12-13T20:49:15;22.30;;;8.80;;
72590;SDS011;60625;51.212;5.952;2022-12-13T20:54:15;20.70;;;8.30;;
72590;SDS011;60625;51.212;5.952;2022-12-13T20:59:16;16.50;;;7.80;;
72590;SDS011;60625;51.212;5.952;2022-12-13T21:04:17;18.70;;;8.00;;
72590;SDS011;60625;51.212;5.952;2022-12-13T21:09:17;18.40;;;7.20;;
72590;SDS011;60625;51.212;5.952;2022-12-13T21:14:26;16.80;;;7.00;;
72590;SDS011;60625;51.212;5.952;2022-12-13T21:19:31;15.30;;;6.50;;
72590;SDS011;60625;51.212;5.952;2022-12-13T21:24:32;22.20;;;7.00;;
72590;SDS011;60625;51.212;5.952;2022-12-13T21:29:32;15.60;;;7.00;;
72590;SDS011;60625;51.212;5.952;2022-12-13T21:34:32;17.10;;;6.90;;
72590;SDS011;60625;51.212;5.952;2022-12-13T21:39:33;15.80;;;6.50;;
72590;SDS011;60625;51.212;5.952;2022-12-13T21:44:37;19.30;;;7.60;;
72590;SDS011;60625;51.212;5.952;2022-12-13T21:49:38;17.90;;;6.80;;
72590;SDS011;60625;51.212;5.952;2022-12-13T21:54:38;13.70;;;5.90;;
72590;SDS011;60625;51.212;5.952;2022-12-13T21:59:39;15.60;;;7.00;;
72590;SDS011;60625;51.212;5.952;2022-12-13T22:09:52;15.80;;;6.90;;
72590;SDS011;60625;51.212;5.952;2022-12-13T22:14:54;16.40;;;7.40;;
72590;SDS011;60625;51.212;5.952;2022-12-13T22:19:55;19.20;;;8.50;;
72590;SDS011;60625;51.212;5.952;2022-12-13T22:24:55;17.60;;;7.10;;
72590;SDS011;60625;51.212;5.952;2022-12-13T22:29:56;16.80;;;7.50;;
72590;SDS011;60625;51.212;5.952;2022-12-13T22:34:57;13.70;;;5.90;;
72590;SDS011;60625;51.212;5.952;2022-12-13T22:39:58;15.60;;;7.20;;
72590;SDS011;60625;51.212;5.952;2022-12-13T22:44:58;14.90;;;5.50;;
72590;SDS011;60625;51.212;5.952;2022-12-13T22:49:59;18.40;;;6.90;;
72590;SDS011;60625;51.212;5.952;2022-12-13T22:55:00;20.00;;;7.40;;
72590;SDS011;60625;51.212;5.952;2022-12-13T23:00:01;20.60;;;7.40;;
72590;SDS011;60625;51.212;5.952;2022-12-13T23:05:01;13.70;;;6.50;;
72590;SDS011;60625;51.212;5.952;2022-12-13T23:10:03;14.90;;;6.20;;
72590;SDS011;60625;51.212;5.952;2022-12-13T23:15:23;16.30;;;7.10;;
72590;SDS011;60625;51.212;5.952;2022-12-13T23:20:24;16.10;;;6.10;;
72590;SDS011;60625;51.212;5.952;2022-12-13T23:25:25;15.70;;;6.30;;
72590;SDS011;60625;51.212;5.952;2022-12-13T23:30:26;16.00;;;5.90;;
72590;SDS011;60625;51.212;5.952;2022-12-13T23:35:26;15.60;;;6.70;;
72590;SDS011;60625;51.212;5.952;2022-12-13T23:40:27;14.70;;;6.50;;
72590;SDS011;60625;51.212;5.952;2022-12-13T23:45:28;14.70;;;6.40;;
72590;SDS011;60625;51.212;5.952;2022-12-13T23:50:28;16.10;;;6.40;;
72590;SDS011;60625;51.212;5.952;2022-12-13T23:55:29;21.10;;;6.40;;
